sensor_id;sensor_type;location;lat;lon;timestamp;P1;durP1;ratioP1;P2;durP2;ratioP2
76136;SDS011;65019;53.174;18.166;2022-11-11T07:20:25;4.10;;;1.30;;
76136;SDS011;65019;53.174;18.166;2022-11-11T07:22:50;4.90;;;1.60;;
76136;SDS011;65019;53.174;18.166;2022-11-11T07:25:47;5.10;;;1.60;;
76136;SDS011;65019;53.174;18.166;2022-11-11T07:28:33;4.70;;;1.40;;
76136;SDS011;65019;53.174;18.166;2022-11-11T07:31:19;4.50;;;1.60;;
76136;SDS011;65019;53.174;18.166;2022-11-11T07:34:04;4.00;;;1.40;;
76136;SDS011;65019;53.174;18.166;2022-11-11T07:55:06;5.30;;;1.60;;
76136;SDS011;65019;53.174;18.166;2022-11-11T08:00:35;8.50;;;3.00;;
76136;SDS011;65019;53.174;18.166;2022-11-11T08:03:21;11.30;;;4.40;;
76136;SDS011;65019;53.174;18.166;2022-11-11T08:06:06;12.90;;;5.50;;
76136;SDS011;65019;53.174;18.166;2022-11-11T08:08:51;16.00;;;7.90;;
76136;SDS011;65019;53.174;18.166;2022-11-11T08:11:37;14.10;;;4.90;;
76136;SDS011;65019;53.174;18.166;2022-11-11T08:14:41;11.00;;;3.70;;
76136;SDS011;65019;53.174;18.166;2022-11-11T08:17:27;10.30;;;3.90;;
76136;SDS011;65019;53.174;18.166;2022-11-11T08:20:13;11.10;;;3.10;;
76136;SDS011;65019;53.174;18.166;2022-11-11T08:22:58;10.10;;;2.90;;
76136;SDS011;65019;53.174;18.166;2022-11-11T08:25:44;11.70;;;3.80;;
76136;SDS011;65019;53.174;18.166;2022-11-11T08:28:31;8.90;;;3.10;;
76136;SDS011;65019;53.174;18.166;2022-11-11T08:31:19;11.30;;;3.10;;
76136;SDS011;65019;53.174;18.166;2022-11-11T08:34:04;8.90;;;3.50;;
76136;SDS011;65019;53.174;18.166;2022-11-11T08:36:50;11.80;;;3.40;;
76136;SDS011;65019;53.174;18.166;2022-11-11T08:39:35;10.10;;;3.30;;
76136;SDS011;65019;53.174;18.166;2022-11-11T08:42:21;10.60;;;3.80;;
76136;SDS011;65019;53.174;18.166;2022-11-11T08:45:06;11.00;;;5.10;;
76136;SDS011;65019;53.174;18.166;2022-11-11T08:47:53;13.60;;;4.40;;
76136;SDS011;65019;53.174;18.166;2022-11-11T08:50:39;11.60;;;3.40;;
76136;SDS011;65019;53.174;18.166;2022-11-11T08:53:25;8.60;;;4.00;;
76136;SDS011;65019;53.174;18.166;2022-11-11T08:56:12;13.50;;;5.00;;
76136;SDS011;65019;53.174;18.166;2022-11-11T08:58:57;14.50;;;5.20;;
76136;SDS011;65019;53.174;18.166;2022-11-11T09:01:43;11.40;;;4.10;;
76136;SDS011;65019;53.174;18.166;2022-11-11T09:04:29;14.30;;;5.40;;
76136;SDS011;65019;53.174;18.166;2022-11-11T09:07:14;15.00;;;5.80;;
76136;SDS011;65019;53.174;18.166;2022-11-11T09:09:59;23.70;;;10.60;;
76136;SDS011;65019;53.174;18.166;2022-11-11T09:12:45;18.30;;;6.90;;
76136;SDS011;65019;53.174;18.166;2022-11-11T09:15:31;11.20;;;3.60;;
76136;SDS011;65019;53.174;18.166;2022-11-11T09:18:17;14.50;;;4.40;;
76136;SDS011;65019;53.174;18.166;2022-11-11T09:21:03;9.90;;;3.30;;
76136;SDS011;65019;53.174;18.166;2022-11-11T09:23:49;11.10;;;3.90;;
76136;SDS011;65019;53.174;18.166;2022-11-11T09:26:34;11.70;;;3.60;;
76136;SDS011;65019;53.174;18.166;2022-11-11T09:29:21;13.50;;;3.70;;
76136;SDS011;65019;53.174;18.166;2022-11-11T09:32:07;8.90;;;2.80;;
76136;SDS011;65019;53.174;18.166;2022-11-11T09:34:52;11.40;;;3.90;;
76136;SDS011;65019;53.174;18.166;2022-11-11T09:37:39;9.60;;;4.40;;
76136;SDS011;65019;53.174;18.166;2022-11-11T09:40:27;9.70;;;3.10;;
76136;SDS011;65019;53.174;18.166;2022-11-11T09:46:42;7.30;;;2.10;;
76136;SDS011;65019;53.174;18.166;2022-11-11T09:52:37;8.30;;;2.90;;
76136;SDS011;65019;53.174;18.166;2022-11-11T09:55:46;9.10;;;2.80;;
76136;SDS011;65019;53.174;18.166;2022-11-11T09:58:38;7.50;;;2.70;;
76136;SDS011;65019;53.174;18.166;2022-11-11T10:01:42;10.30;;;3.80;;
76136;SDS011;65019;53.174;18.166;2022-11-11T10:04:40;11.60;;;4.10;;
76136;SDS011;65019;53.174;18.166;2022-11-11T10:07:48;11.40;;;3.90;;
76136;SDS011;65019;53.174;18.166;2022-11-11T10:10:45;7.60;;;3.10;;
76136;SDS011;65019;53.174;18.166;2022-11-11T10:13:34;10.60;;;3.70;;
76136;SDS011;65019;53.174;18.166;2022-11-11T10:19:33;11.10;;;3.30;;
76136;SDS011;65019;53.174;18.166;2022-11-11T10:27:58;10.30;;;3.60;;
76136;SDS011;65019;53.174;18.166;2022-11-11T10:30:47;8.10;;;3.20;;
76136;SDS011;65019;53.174;18.166;2022-11-11T10:33:54;8.30;;;2.90;;
76136;SDS011;65019;53.174;18.166;2022-11-11T10:36:48;8.80;;;3.10;;
76136;SDS011;65019;53.174;18.166;2022-11-11T10:39:46;11.00;;;2.70;;
76136;SDS011;65019;53.174;18.166;2022-11-11T10:42:49;18.20;;;6.00;;
76136;SDS011;65019;53.174;18.166;2022-11-11T10:45:39;15.30;;;5.10;;
76136;SDS011;65019;53.174;18.166;2022-11-11T10:48:37;10.20;;;3.20;;
76136;SDS011;65019;53.174;18.166;2022-11-11T10:55:03;9.50;;;3.60;;
76136;SDS011;65019;53.174;18.166;2022-11-11T10:57:53;8.50;;;3.00;;
76136;SDS011;65019;53.174;18.166;2022-11-11T11:00:44;10.30;;;3.70;;
76136;SDS011;65019;53.174;18.166;2022-11-11T11:03:36;10.20;;;3.70;;
76136;SDS011;65019;53.174;18.166;2022-11-11T11:06:27;9.10;;;3.60;;
76136;SDS011;65019;53.174;18.166;2022-11-11T11:09:19;10.60;;;3.60;;
76136;SDS011;65019;53.174;18.166;2022-11-11T11:12:19;9.70;;;3.10;;
76136;SDS011;65019;53.174;18.166;2022-11-11T11:15:13;8.20;;;2.80;;
76136;SDS011;65019;53.174;18.166;2022-11-11T11:23:40;8.40;;;2.80;;
76136;SDS011;65019;53.174;18.166;2022-11-11T11:26:44;8.50;;;2.90;;
76136;SDS011;65019;53.174;18.166;2022-11-11T11:32:19;13.70;;;3.80;;
76136;SDS011;65019;53.174;18.166;2022-11-11T11:35:28;9.50;;;4.30;;
76136;SDS011;65019;53.174;18.166;2022-11-11T11:38:14;10.50;;;3.50;;
76136;SDS011;65019;53.174;18.166;2022-11-11T11:41:00;15.20;;;5.90;;
76136;SDS011;65019;53.174;18.166;2022-11-11T11:43:46;13.80;;;5.00;;
76136;SDS011;65019;53.174;18.166;2022-11-11T11:46:38;11.30;;;3.60;;
76136;SDS011;65019;53.174;18.166;2022-11-11T11:55:53;10.30;;;4.00;;
76136;SDS011;65019;53.174;18.166;2022-11-11T11:58:56;10.50;;;3.60;;
76136;SDS011;65019;53.174;18.166;2022-11-11T12:05:30;12.60;;;3.60;;
76136;SDS011;65019;53.174;18.166;2022-11-11T12:11:08;10.30;;;3.30;;
76136;SDS011;65019;53.174;18.166;2022-11-11T12:20:24;8.90;;;3.30;;
76136;SDS011;65019;53.174;18.166;2022-11-11T12:26:15;11.10;;;3.40;;
76136;SDS011;65019;53.174;18.166;2022-11-11T12:44:31;9.00;;;3.40;;
76136;SDS011;65019;53.174;18.166;2022-11-11T12:53:48;10.60;;;3.90;;
76136;SDS011;65019;53.174;18.166;2022-11-11T13:08:47;9.00;;;2.90;;
76136;SDS011;65019;53.174;18.166;2022-11-11T13:11:47;10.10;;;3.10;;
76136;SDS011;65019;53.174;18.166;2022-11-11T13:14:43;11.40;;;3.20;;
76136;SDS011;65019;53.174;18.166;2022-11-11T13:17:32;10.20;;;3.40;;
76136;SDS011;65019;53.174;18.166;2022-11-11T13:23:22;11.40;;;3.80;;
76136;SDS011;65019;53.174;18.166;2022-11-11T13:26:13;10.10;;;3.80;;
76136;SDS011;65019;53.174;18.166;2022-11-11T13:32:12;12.20;;;3.50;;
76136;SDS011;65019;53.174;18.166;2022-11-11T13:35:00;8.10;;;3.60;;
76136;SDS011;65019;53.174;18.166;2022-11-11T13:37:46;10.40;;;3.60;;
76136;SDS011;65019;53.174;18.166;2022-11-11T13:40:39;10.50;;;3.40;;
76136;SDS011;65019;53.174;18.166;2022-11-11T13:46:37;10.60;;;3.40;;
76136;SDS011;65019;53.174;18.166;2022-11-11T13:49:27;9.10;;;2.60;;
76136;SDS011;65019;53.174;18.166;2022-11-11T13:55:28;10.10;;;3.60;;
76136;SDS011;65019;53.174;18.166;2022-11-11T13:58:37;11.50;;;3.80;;
76136;SDS011;65019;53.174;18.166;2022-11-11T14:01:32;14.30;;;6.20;;
76136;SDS011;65019;53.174;18.166;2022-11-11T14:04:20;8.40;;;3.30;;
76136;SDS011;65019;53.174;18.166;2022-11-11T14:07:06;12.50;;;5.80;;
76136;SDS011;65019;53.174;18.166;2022-11-11T14:09:56;16.70;;;10.90;;
76136;SDS011;65019;53.174;18.166;2022-11-11T14:12:48;10.90;;;4.50;;
76136;SDS011;65019;53.174;18.166;2022-11-11T14:15:43;11.00;;;5.30;;
76136;SDS011;65019;53.174;18.166;2022-11-11T14:18:36;10.80;;;4.00;;
76136;SDS011;65019;53.174;18.166;2022-11-11T14:21:43;8.30;;;2.60;;
76136;SDS011;65019;53.174;18.166;2022-11-11T14:27:26;9.50;;;3.50;;
76136;SDS011;65019;53.174;18.166;2022-11-11T14:30:36;10.50;;;3.70;;
76136;SDS011;65019;53.174;18.166;2022-11-11T14:33:27;8.60;;;3.70;;
76136;SDS011;65019;53.174;18.166;2022-11-11T14:39:37;10.10;;;4.50;;
76136;SDS011;65019;53.174;18.166;2022-11-11T14:51:47;11.40;;;4.10;;
76136;SDS011;65019;53.174;18.166;2022-11-11T14:54:40;9.90;;;3.20;;
76136;SDS011;65019;53.174;18.166;2022-11-11T14:57:35;12.10;;;4.80;;
76136;SDS011;65019;53.174;18.166;2022-11-11T15:12:37;33.70;;;18.60;;
76136;SDS011;65019;53.174;18.166;2022-11-11T15:25:25;17.60;;;7.10;;
76136;SDS011;65019;53.174;18.166;2022-11-11T15:28:16;15.10;;;6.10;;
76136;SDS011;65019;53.174;18.166;2022-11-11T15:31:49;16.20;;;7.00;;
76136;SDS011;65019;53.174;18.166;2022-11-11T15:37:17;11.60;;;5.50;;
76136;SDS011;65019;53.174;18.166;2022-11-11T15:40:15;8.50;;;3.80;;
76136;SDS011;65019;53.174;18.166;2022-11-11T15:43:04;10.80;;;3.70;;
76136;SDS011;65019;53.174;18.166;2022-11-11T15:45:57;8.10;;;3.00;;
76136;SDS011;65019;53.174;18.166;2022-11-11T15:48:45;10.60;;;3.50;;
76136;SDS011;65019;53.174;18.166;2022-11-11T15:51:31;15.00;;;5.30;;
76136;SDS011;65019;53.174;18.166;2022-11-11T15:54:18;9.50;;;3.60;;
76136;SDS011;65019;53.174;18.166;2022-11-11T15:57:29;10.70;;;3.60;;
76136;SDS011;65019;53.174;18.166;2022-11-11T16:03:15;9.50;;;3.80;;
76136;SDS011;65019;53.174;18.166;2022-11-11T16:06:11;9.00;;;3.20;;
76136;SDS011;65019;53.174;18.166;2022-11-11T16:08:59;8.40;;;3.70;;
76136;SDS011;65019;53.174;18.166;2022-11-11T16:11:47;12.00;;;3.60;;
76136;SDS011;65019;53.174;18.166;2022-11-11T16:14:33;9.10;;;3.40;;
76136;SDS011;65019;53.174;18.166;2022-11-11T16:17:26;7.10;;;3.30;;
76136;SDS011;65019;53.174;18.166;2022-11-11T16:20:27;9.10;;;3.50;;
76136;SDS011;65019;53.174;18.166;2022-11-11T16:23:19;13.30;;;5.30;;
76136;SDS011;65019;53.174;18.166;2022-11-11T16:26:06;11.20;;;4.30;;
76136;SDS011;65019;53.174;18.166;2022-11-11T16:28:53;10.30;;;3.90;;
76136;SDS011;65019;53.174;18.166;2022-11-11T16:31:42;9.40;;;3.70;;
76136;SDS011;65019;53.174;18.166;2022-11-11T16:37:15;10.10;;;4.00;;
76136;SDS011;65019;53.174;18.166;2022-11-11T16:46:02;10.70;;;4.40;;
76136;SDS011;65019;53.174;18.166;2022-11-11T16:48:50;12.80;;;4.50;;
76136;SDS011;65019;53.174;18.166;2022-11-11T16:51:44;11.10;;;4.30;;
76136;SDS011;65019;53.174;18.166;2022-11-11T16:54:33;11.60;;;4.90;;
76136;SDS011;65019;53.174;18.166;2022-11-11T16:57:28;11.50;;;4.70;;
76136;SDS011;65019;53.174;18.166;2022-11-11T17:00:20;12.10;;;4.50;;
76136;SDS011;65019;53.174;18.166;2022-11-11T17:06:01;11.30;;;4.60;;
76136;SDS011;65019;53.174;18.166;2022-11-11T17:08:54;13.00;;;4.90;;
76136;SDS011;65019;53.174;18.166;2022-11-11T17:14:26;34.10;;;10.90;;
76136;SDS011;65019;53.174;18.166;2022-11-11T17:17:13;18.70;;;7.30;;
76136;SDS011;65019;53.174;18.166;2022-11-11T17:19:59;13.70;;;5.50;;
76136;SDS011;65019;53.174;18.166;2022-11-11T17:23:03;13.20;;;5.90;;
76136;SDS011;65019;53.174;18.166;2022-11-11T17:25:57;25.10;;;12.00;;
76136;SDS011;65019;53.174;18.166;2022-11-11T17:28:45;16.70;;;7.20;;
76136;SDS011;65019;53.174;18.166;2022-11-11T17:31:30;21.90;;;8.60;;
76136;SDS011;65019;53.174;18.166;2022-11-11T17:34:15;17.30;;;6.10;;
76136;SDS011;65019;53.174;18.166;2022-11-11T17:37:01;16.30;;;7.10;;
76136;SDS011;65019;53.174;18.166;2022-11-11T17:39:47;16.20;;;6.80;;
76136;SDS011;65019;53.174;18.166;2022-11-11T17:42:34;18.00;;;7.40;;
76136;SDS011;65019;53.174;18.166;2022-11-11T17:45:21;17.20;;;7.40;;
76136;SDS011;65019;53.174;18.166;2022-11-11T17:48:06;13.30;;;5.70;;
76136;SDS011;65019;53.174;18.166;2022-11-11T17:50:53;12.80;;;5.20;;
76136;SDS011;65019;53.174;18.166;2022-11-11T17:53:38;18.90;;;8.30;;
76136;SDS011;65019;53.174;18.166;2022-11-11T17:56:24;14.80;;;6.90;;
76136;SDS011;65019;53.174;18.166;2022-11-11T17:59:10;14.10;;;5.80;;
76136;SDS011;65019;53.174;18.166;2022-11-11T18:01:56;11.90;;;5.20;;
76136;SDS011;65019;53.174;18.166;2022-11-11T18:04:41;12.40;;;5.30;;
76136;SDS011;65019;53.174;18.166;2022-11-11T18:07:27;15.60;;;7.10;;
76136;SDS011;65019;53.174;18.166;2022-11-11T18:10:12;16.70;;;6.90;;
76136;SDS011;65019;53.174;18.166;2022-11-11T18:12:58;21.60;;;8.80;;
76136;SDS011;65019;53.174;18.166;2022-11-11T18:15:44;17.80;;;7.70;;
76136;SDS011;65019;53.174;18.166;2022-11-11T18:18:29;14.60;;;6.90;;
76136;SDS011;65019;53.174;18.166;2022-11-11T18:21:16;14.30;;;5.90;;
76136;SDS011;65019;53.174;18.166;2022-11-11T18:24:05;13.20;;;5.10;;
76136;SDS011;65019;53.174;18.166;2022-11-11T18:26:51;11.70;;;5.10;;
76136;SDS011;65019;53.174;18.166;2022-11-11T18:29:36;10.20;;;3.70;;
76136;SDS011;65019;53.174;18.166;2022-11-11T18:32:22;13.60;;;5.30;;
76136;SDS011;65019;53.174;18.166;2022-11-11T18:35:07;12.20;;;5.30;;
76136;SDS011;65019;53.174;18.166;2022-11-11T18:37:53;10.80;;;5.00;;
76136;SDS011;65019;53.174;18.166;2022-11-11T18:40:38;12.60;;;6.00;;
76136;SDS011;65019;53.174;18.166;2022-11-11T18:43:24;10.70;;;4.70;;
76136;SDS011;65019;53.174;18.166;2022-11-11T18:46:11;11.60;;;5.10;;
76136;SDS011;65019;53.174;18.166;2022-11-11T18:49:02;12.20;;;4.60;;
76136;SDS011;65019;53.174;18.166;2022-11-11T18:51:49;12.40;;;5.10;;
76136;SDS011;65019;53.174;18.166;2022-11-11T18:54:34;12.00;;;4.50;;
76136;SDS011;65019;53.174;18.166;2022-11-11T18:57:20;16.90;;;6.10;;
76136;SDS011;65019;53.174;18.166;2022-11-11T19:00:06;13.60;;;6.10;;
76136;SDS011;65019;53.174;18.166;2022-11-11T19:02:53;16.80;;;7.20;;
76136;SDS011;65019;53.174;18.166;2022-11-11T19:05:38;13.60;;;5.10;;
76136;SDS011;65019;53.174;18.166;2022-11-11T19:08:24;15.20;;;6.60;;
76136;SDS011;65019;53.174;18.166;2022-11-11T19:11:09;16.80;;;7.10;;
76136;SDS011;65019;53.174;18.166;2022-11-11T19:13:55;17.90;;;6.90;;
76136;SDS011;65019;53.174;18.166;2022-11-11T19:16:40;16.50;;;7.00;;
76136;SDS011;65019;53.174;18.166;2022-11-11T19:19:26;16.30;;;6.60;;
76136;SDS011;65019;53.174;18.166;2022-11-11T19:22:11;14.10;;;6.70;;
76136;SDS011;65019;53.174;18.166;2022-11-11T19:24:58;11.70;;;5.70;;
76136;SDS011;65019;53.174;18.166;2022-11-11T19:27:44;11.60;;;4.50;;
76136;SDS011;65019;53.174;18.166;2022-11-11T19:30:30;14.40;;;6.20;;
76136;SDS011;65019;53.174;18.166;2022-11-11T19:33:16;15.30;;;6.30;;
76136;SDS011;65019;53.174;18.166;2022-11-11T19:36:03;14.20;;;6.30;;
76136;SDS011;65019;53.174;18.166;2022-11-11T19:38:50;16.80;;;7.10;;
76136;SDS011;65019;53.174;18.166;2022-11-11T19:41:35;13.20;;;5.80;;
76136;SDS011;65019;53.174;18.166;2022-11-11T19:44:21;14.40;;;6.40;;
76136;SDS011;65019;53.174;18.166;2022-11-11T19:47:06;19.40;;;8.00;;
76136;SDS011;65019;53.174;18.166;2022-11-11T19:49:52;13.60;;;6.00;;
76136;SDS011;65019;53.174;18.166;2022-11-11T19:52:37;15.20;;;6.00;;
76136;SDS011;65019;53.174;18.166;2022-11-11T19:55:22;13.80;;;6.60;;
76136;SDS011;65019;53.174;18.166;2022-11-11T19:58:08;15.00;;;6.80;;
76136;SDS011;65019;53.174;18.166;2022-11-11T20:00:54;11.70;;;5.50;;
76136;SDS011;65019;53.174;18.166;2022-11-11T20:03:41;13.80;;;6.70;;
76136;SDS011;65019;53.174;18.166;2022-11-11T20:06:31;13.00;;;6.10;;
76136;SDS011;65019;53.174;18.166;2022-11-11T20:09:19;12.40;;;5.10;;
76136;SDS011;65019;53.174;18.166;2022-11-11T20:12:04;11.20;;;4.90;;
76136;SDS011;65019;53.174;18.166;2022-11-11T20:14:50;12.20;;;6.30;;
76136;SDS011;65019;53.174;18.166;2022-11-11T20:17:37;15.10;;;6.80;;
76136;SDS011;65019;53.174;18.166;2022-11-11T20:20:23;15.00;;;6.20;;
76136;SDS011;65019;53.174;18.166;2022-11-11T20:23:08;12.00;;;6.10;;
76136;SDS011;65019;53.174;18.166;2022-11-11T20:25:54;9.90;;;5.30;;
76136;SDS011;65019;53.174;18.166;2022-11-11T20:28:41;10.70;;;4.70;;
76136;SDS011;65019;53.174;18.166;2022-11-11T20:31:28;12.20;;;5.60;;
76136;SDS011;65019;53.174;18.166;2022-11-11T20:34:14;13.70;;;5.30;;
76136;SDS011;65019;53.174;18.166;2022-11-11T20:37:00;11.60;;;4.30;;
76136;SDS011;65019;53.174;18.166;2022-11-11T20:39:46;11.20;;;5.20;;
76136;SDS011;65019;53.174;18.166;2022-11-11T20:42:31;12.30;;;6.10;;
76136;SDS011;65019;53.174;18.166;2022-11-11T20:45:17;15.40;;;5.90;;
76136;SDS011;65019;53.174;18.166;2022-11-11T20:48:06;12.50;;;5.60;;
76136;SDS011;65019;53.174;18.166;2022-11-11T20:51:02;9.10;;;4.30;;
76136;SDS011;65019;53.174;18.166;2022-11-11T20:53:56;10.80;;;5.50;;
76136;SDS011;65019;53.174;18.166;2022-11-11T20:56:43;12.50;;;6.30;;
76136;SDS011;65019;53.174;18.166;2022-11-11T20:59:31;11.00;;;5.50;;
76136;SDS011;65019;53.174;18.166;2022-11-11T21:02:17;10.30;;;5.10;;
76136;SDS011;65019;53.174;18.166;2022-11-11T21:05:02;11.40;;;4.70;;
76136;SDS011;65019;53.174;18.166;2022-11-11T21:07:48;10.30;;;5.40;;
76136;SDS011;65019;53.174;18.166;2022-11-11T21:10:33;14.10;;;5.50;;
76136;SDS011;65019;53.174;18.166;2022-11-11T21:13:19;15.20;;;5.20;;
76136;SDS011;65019;53.174;18.166;2022-11-11T21:16:08;12.70;;;5.10;;
76136;SDS011;65019;53.174;18.166;2022-11-11T21:18:56;10.10;;;5.20;;
76136;SDS011;65019;53.174;18.166;2022-11-11T21:21:43;10.40;;;4.80;;
76136;SDS011;65019;53.174;18.166;2022-11-11T21:24:31;11.40;;;4.90;;
76136;SDS011;65019;53.174;18.166;2022-11-11T21:27:17;11.00;;;5.50;;
76136;SDS011;65019;53.174;18.166;2022-11-11T21:30:02;11.80;;;5.50;;
76136;SDS011;65019;53.174;18.166;2022-11-11T21:32:48;12.00;;;5.10;;
76136;SDS011;65019;53.174;18.166;2022-11-11T21:35:34;10.50;;;6.00;;
76136;SDS011;65019;53.174;18.166;2022-11-11T21:38:19;11.70;;;6.40;;
76136;SDS011;65019;53.174;18.166;2022-11-11T21:41:06;12.90;;;4.90;;
76136;SDS011;65019;53.174;18.166;2022-11-11T21:43:54;11.40;;;5.20;;
76136;SDS011;65019;53.174;18.166;2022-11-11T21:46:39;10.40;;;4.70;;
76136;SDS011;65019;53.174;18.166;2022-11-11T21:49:25;13.30;;;6.30;;
76136;SDS011;65019;53.174;18.166;2022-11-11T21:52:10;10.80;;;5.10;;
76136;SDS011;65019;53.174;18.166;2022-11-11T21:54:55;13.70;;;5.40;;
76136;SDS011;65019;53.174;18.166;2022-11-11T21:57:41;12.30;;;5.90;;
76136;SDS011;65019;53.174;18.166;2022-11-11T22:00:26;12.20;;;5.60;;
76136;SDS011;65019;53.174;18.166;2022-11-11T22:03:11;15.30;;;7.00;;
76136;SDS011;65019;53.174;18.166;2022-11-11T22:06:12;13.50;;;7.30;;
76136;SDS011;65019;53.174;18.166;2022-11-11T22:08:59;13.80;;;5.90;;
76136;SDS011;65019;53.174;18.166;2022-11-11T22:11:45;12.90;;;5.80;;
76136;SDS011;65019;53.174;18.166;2022-11-11T22:14:30;11.70;;;5.70;;
76136;SDS011;65019;53.174;18.166;2022-11-11T22:17:15;13.30;;;5.80;;
76136;SDS011;65019;53.174;18.166;2022-11-11T22:20:01;12.60;;;5.70;;
76136;SDS011;65019;53.174;18.166;2022-11-11T22:22:46;11.00;;;4.80;;
76136;SDS011;65019;53.174;18.166;2022-11-11T22:25:31;13.40;;;6.80;;
76136;SDS011;65019;53.174;18.166;2022-11-11T22:28:16;11.50;;;6.30;;
76136;SDS011;65019;53.174;18.166;2022-11-11T22:31:15;15.50;;;7.20;;
76136;SDS011;65019;53.174;18.166;2022-11-11T22:34:07;15.60;;;7.50;;
76136;SDS011;65019;53.174;18.166;2022-11-11T22:36:53;13.30;;;7.40;;
76136;SDS011;65019;53.174;18.166;2022-11-11T22:39:39;12.10;;;6.50;;
76136;SDS011;65019;53.174;18.166;2022-11-11T22:42:24;15.00;;;7.80;;
76136;SDS011;65019;53.174;18.166;2022-11-11T22:45:11;17.30;;;7.90;;
76136;SDS011;65019;53.174;18.166;2022-11-11T22:47:56;16.90;;;8.90;;
76136;SDS011;65019;53.174;18.166;2022-11-11T22:50:41;15.20;;;8.00;;
76136;SDS011;65019;53.174;18.166;2022-11-11T22:53:27;17.00;;;7.30;;
76136;SDS011;65019;53.174;18.166;2022-11-11T22:56:13;15.30;;;7.90;;
76136;SDS011;65019;53.174;18.166;2022-11-11T22:59:00;14.00;;;7.80;;
76136;SDS011;65019;53.174;18.166;2022-11-11T23:01:47;16.40;;;8.20;;
76136;SDS011;65019;53.174;18.166;2022-11-11T23:04:32;16.70;;;7.10;;
76136;SDS011;65019;53.174;18.166;2022-11-11T23:07:18;17.00;;;7.20;;
76136;SDS011;65019;53.174;18.166;2022-11-11T23:10:04;11.80;;;7.00;;
76136;SDS011;65019;53.174;18.166;2022-11-11T23:12:49;14.80;;;7.40;;
76136;SDS011;65019;53.174;18.166;2022-11-11T23:15:35;17.70;;;8.70;;
76136;SDS011;65019;53.174;18.166;2022-11-11T23:18:20;13.20;;;7.50;;
76136;SDS011;65019;53.174;18.166;2022-11-11T23:21:10;12.00;;;6.40;;
76136;SDS011;65019;53.174;18.166;2022-11-11T23:23:57;12.90;;;7.00;;
76136;SDS011;65019;53.174;18.166;2022-11-11T23:26:43;13.80;;;7.80;;
76136;SDS011;65019;53.174;18.166;2022-11-11T23:29:29;10.00;;;5.60;;
76136;SDS011;65019;53.174;18.166;2022-11-11T23:32:14;11.30;;;6.50;;
76136;SDS011;65019;53.174;18.166;2022-11-11T23:34:59;11.80;;;6.30;;
76136;SDS011;65019;53.174;18.166;2022-11-11T23:37:45;12.30;;;6.40;;
76136;SDS011;65019;53.174;18.166;2022-11-11T23:40:31;12.70;;;6.70;;
76136;SDS011;65019;53.174;18.166;2022-11-11T23:43:16;13.80;;;6.00;;
76136;SDS011;65019;53.174;18.166;2022-11-11T23:46:02;12.30;;;5.80;;
76136;SDS011;65019;53.174;18.166;2022-11-11T23:48:48;15.50;;;8.00;;
76136;SDS011;65019;53.174;18.166;2022-11-11T23:51:34;10.60;;;5.60;;
76136;SDS011;65019;53.174;18.166;2022-11-11T23:54:19;13.90;;;5.80;;
76136;SDS011;65019;53.174;18.166;2022-11-11T23:57:05;13.00;;;6.60;;
76136;SDS011;65019;53.174;18.166;2022-11-11T23:59:50;10.50;;;5.60;;
